Time;durP1;ratioP1;P1;durP2;ratioP2;P2;SDS_P1;SDS_P2;PMS_P1;PMS_P2;Temp;Humidity;BMP_temperature;BMP_pressure;BME280_temperature;BME280_humidity;BME280_pressure;Samples;Min_cycle;Max_cycle;Signal;HPM_P1;HPM_P2
2021/09/28 00:01:55;;;;;;;6.67;5.67;;;;;;;9.85;79.98;101410.32;1783507;80;20872;-70
2021/09/28 00:04:21;;;;;;;5.30;4.80;;;;;;;9.88;80.01;101410.64;1783881;80;20884;-70
2021/09/28 00:06:50;;;;;;;6.35;4.87;;;;;;;9.89;79.98;101407.09;1783424;80;20973;-69
2021/09/28 00:09:17;;;;;;;9.90;5.65;;;;;;;9.92;80.00;101410.91;1783487;80;21974;-71
2021/09/28 00:11:49;;;;;;;5.17;4.60;;;;;;;9.93;79.93;101414.73;1783361;80;21401;-73
2021/09/28 00:14:17;;;;;;;5.95;4.30;;;;;;;9.95;79.98;101406.36;1783383;80;20896;-72
2021/09/28 00:16:44;;;;;;;5.58;4.62;;;;;;;9.99;79.99;101407.55;1783544;80;21164;-72
2021/09/28 00:19:11;;;;;;;5.25;4.78;;;;;;;10.03;79.88;101405.19;1783741;80;20928;-74
2021/09/28 00:21:39;;;;;;;9.25;4.40;;;;;;;10.04;79.84;101399.85;1783326;80;20888;-72
2021/09/28 00:24:07;;;;;;;6.28;4.80;;;;;;;10.07;79.84;101409.34;1783592;80;20931;-73
2021/09/28 00:26:34;;;;;;;7.50;5.37;;;;;;;10.10;79.82;101402.20;1783540;80;20947;-72
2021/09/28 00:29:00;;;;;;;5.78;4.62;;;;;;;10.14;79.73;101410.79;1783352;80;21477;-72
2021/09/28 00:31:28;;;;;;;6.28;5.20;;;;;;;10.16;79.69;101403.24;1777887;80;20901;-71
2021/09/28 00:33:56;;;;;;;8.55;5.25;;;;;;;10.18;79.62;101405.77;1775175;80;21532;-71
2021/09/28 00:36:23;;;;;;;6.37;5.10;;;;;;;10.15;79.31;101411.16;1775066;80;20940;-72
2021/09/28 00:38:51;;;;;;;8.10;4.67;;;;;;;10.12;79.52;101410.01;1775342;80;21430;-71
2021/09/28 00:41:19;;;;;;;6.03;5.42;;;;;;;10.11;79.62;101406.98;1775186;80;21426;-72
2021/09/28 00:43:53;;;;;;;5.97;5.47;;;;;;;10.12;79.58;101404.30;1775403;80;20861;-72
2021/09/28 00:46:22;;;;;;;5.90;5.40;;;;;;;10.16;79.53;101405.02;1776542;80;21147;-72
2021/09/28 00:48:49;;;;;;;18.25;12.40;;;;;;;10.19;79.30;101403.55;1775711;80;20928;-72
2021/09/28 00:51:16;;;;;;;9.53;8.10;;;;;;;10.20;79.22;101402.63;1776733;80;20857;-71
2021/09/28 00:53:43;;;;;;;10.63;8.15;;;;;;;10.19;79.03;101404.87;1777109;80;20975;-70
2021/09/28 00:56:16;;;;;;;10.53;8.40;;;;;;;10.16;79.07;101408.48;1776289;80;20994;-71
2021/09/28 00:58:45;;;;;;;12.20;8.78;;;;;;;10.15;79.06;101418.56;1775937;80;21751;-70
2021/09/28 01:01:13;;;;;;;16.20;11.55;;;;;;;10.13;79.05;101418.24;1775141;80;20936;-71
2021/09/28 01:03:41;;;;;;;13.00;10.48;;;;;;;10.10;78.90;101417.09;1775067;80;21567;-71
2021/09/28 01:06:09;;;;;;;13.98;10.18;;;;;;;10.08;78.81;101418.92;1775092;80;20873;-71
2021/09/28 01:08:36;;;;;;;14.43;11.50;;;;;;;10.04;78.76;101420.81;1775083;80;20936;-69
2021/09/28 01:11:03;;;;;;;11.35;8.53;;;;;;;10.02;78.61;101427.05;1775400;80;21526;-70
2021/09/28 01:13:32;;;;;;;12.23;10.08;;;;;;;9.99;78.52;101433.75;1775168;80;20952;-71
2021/09/28 01:16:05;;;;;;;15.95;11.15;;;;;;;9.95;78.48;101434.33;1775067;80;20867;-70
2021/09/28 01:18:35;;;;;;;12.07;10.38;;;;;;;9.91;78.53;101432.30;1775340;80;21442;-70
2021/09/28 01:21:02;;;;;;;11.18;8.85;;;;;;;9.86;78.41;101434.28;1775433;80;20979;-70
2021/09/28 01:23:31;;;;;;;10.90;8.40;;;;;;;9.81;78.54;101434.10;1775178;80;20979;-70
2021/09/28 01:25:58;;;;;;;7.37;6.17;;;;;;;9.76;78.58;101431.69;1775220;80;20857;-70
2021/09/28 01:28:26;;;;;;;6.35;5.75;;;;;;;9.72;78.87;101434.89;1775133;80;20888;-71
2021/09/28 01:30:52;;;;;;;9.15;6.97;;;;;;;9.69;79.01;101433.72;1777480;80;21525;-70
2021/09/28 01:33:20;;;;;;;10.35;7.10;;;;;;;9.67;79.21;101430.75;1783671;80;21018;-71
2021/09/28 01:35:48;;;;;;;9.83;5.95;;;;;;;9.65;79.33;101431.27;1783590;80;21131;-71
2021/09/28 01:38:15;;;;;;;10.68;6.12;;;;;;;9.63;79.25;101437.06;1783772;80;20967;-72
2021/09/28 01:40:42;;;;;;;7.42;6.10;;;;;;;9.60;79.18;101434.55;1783708;80;20920;-70
2021/09/28 01:43:09;;;;;;;11.25;8.30;;;;;;;9.59;79.28;101436.80;1783730;80;20868;-71
2021/09/28 01:45:38;;;;;;;10.15;7.87;;;;;;;9.57;79.34;101434.23;1783935;80;20888;-71
2021/09/28 01:48:06;;;;;;;11.83;9.73;;;;;;;9.57;79.50;101441.24;1783642;80;21229;-71
2021/09/28 01:50:33;;;;;;;14.35;11.35;;;;;;;9.58;79.53;101445.55;1783569;80;20892;-70
2021/09/28 01:53:00;;;;;;;15.60;11.35;;;;;;;9.57;79.45;101443.86;1783901;80;21008;-71
2021/09/28 01:55:27;;;;;;;16.12;12.05;;;;;;;9.54;79.44;101439.61;1783705;80;20947;-71
2021/09/28 01:57:57;;;;;;;20.35;14.95;;;;;;;9.51;79.41;101437.10;1783931;80;20974;-70
2021/09/28 02:00:26;;;;;;;27.17;18.62;;;;;;;9.51;79.48;101439.25;1783729;80;21154;-70
2021/09/28 02:02:53;;;;;;;23.40;16.90;;;;;;;9.50;79.64;101438.03;1783895;80;21003;-72
2021/09/28 02:05:21;;;;;;;23.98;13.90;;;;;;;9.50;79.49;101432.80;1783924;80;21565;-70
2021/09/28 02:07:48;;;;;;;18.23;12.68;;;;;;;9.49;79.33;101437.19;1783822;80;20908;-71
2021/09/28 02:10:15;;;;;;;30.27;21.40;;;;;;;9.46;79.26;101438.61;1783771;80;20865;-70
2021/09/28 02:12:43;;;;;;;15.48;10.25;;;;;;;9.43;79.28;101445.30;1783959;80;21153;-70
2021/09/28 02:15:11;;;;;;;11.08;9.13;;;;;;;9.41;79.45;101445.81;1783869;80;20928;-70
2021/09/28 02:17:40;;;;;;;10.40;8.28;;;;;;;9.40;79.53;101448.48;1783729;80;20927;-72
2021/09/28 02:20:09;;;;;;;9.13;7.72;;;;;;;9.39;79.61;101446.80;1783705;80;20898;-71
2021/09/28 02:22:36;;;;;;;8.00;7.10;;;;;;;9.37;79.70;101450.78;1784086;79;21541;-71
2021/09/28 02:25:06;;;;;;;8.98;6.60;;;;;;;9.35;79.80;101447.37;1783818;80;22001;-71
2021/09/28 02:27:33;;;;;;;8.68;6.35;;;;;;;9.33;79.74;101450.05;1784059;80;20892;-70
2021/09/28 02:30:01;;;;;;;9.38;6.53;;;;;;;9.32;79.71;101450.98;1783685;80;20916;-71
2021/09/28 02:32:29;;;;;;;8.43;7.08;;;;;;;9.29;79.84;101450.23;1776628;80;20944;-72
2021/09/28 02:34:56;;;;;;;9.13;7.10;;;;;;;9.27;79.91;101454.25;1775306;80;21347;-72
2021/09/28 02:37:24;;;;;;;9.15;7.80;;;;;;;9.24;79.92;101445.66;1775249;80;21473;-71
2021/09/28 02:39:50;;;;;;;13.18;7.53;;;;;;;9.21;79.83;101449.72;1775316;80;20963;-71
2021/09/28 02:42:18;;;;;;;7.42;6.30;;;;;;;9.19;79.77;101453.70;1775178;80;20975;-72
2021/09/28 02:44:45;;;;;;;7.40;6.58;;;;;;;9.17;79.77;101456.83;1775160;80;20913;-72
2021/09/28 02:47:11;;;;;;;11.08;7.42;;;;;;;9.15;79.87;101453.42;1775650;80;20932;-73
2021/09/28 02:49:40;;;;;;;9.60;7.22;;;;;;;9.12;79.90;101463.56;1775108;80;21023;-72
2021/09/28 02:52:07;;;;;;;8.95;6.72;;;;;;;9.09;79.82;101454.97;1775470;80;20897;-71
2021/09/28 02:54:35;;;;;;;10.50;7.90;;;;;;;9.06;79.70;101461.19;1775250;80;20920;-72
2021/09/28 02:57:01;;;;;;;9.53;8.25;;;;;;;9.04;79.56;101460.86;1775564;80;21426;-72
2021/09/28 02:59:29;;;;;;;12.18;9.63;;;;;;;9.00;79.51;101459.27;1775197;80;20845;-71
2021/09/28 03:01:56;;;;;;;10.90;9.43;;;;;;;8.95;79.45;101464.69;1775363;80;21502;-72
2021/09/28 03:04:24;;;;;;;11.38;8.93;;;;;;;8.90;79.43;101466.19;1775339;80;20908;-72
2021/09/28 03:06:51;;;;;;;11.00;9.58;;;;;;;8.87;79.48;101469.36;1775288;80;20979;-72
2021/09/28 03:09:18;;;;;;;10.95;9.03;;;;;;;8.81;79.42;101470.94;1775550;80;21385;-71
2021/09/28 03:11:46;;;;;;;9.88;8.43;;;;;;;8.76;79.43;101472.86;1775323;80;20892;-73
2021/09/28 03:14:13;;;;;;;12.98;10.72;;;;;;;8.71;79.34;101473.03;1775485;80;21516;-70
2021/09/28 03:16:42;;;;;;;11.60;9.73;;;;;;;8.66;79.28;101473.67;1775306;80;21524;-71
2021/09/28 03:19:08;;;;;;;11.35;9.38;;;;;;;8.61;79.15;101480.85;1775621;80;20916;-71
2021/09/28 03:21:35;;;;;;;11.25;9.38;;;;;;;8.54;79.10;101476.31;1775075;80;21427;-72
2021/09/28 03:24:02;;;;;;;12.40;9.50;;;;;;;8.50;79.13;101478.64;1775210;80;21031;-74
2021/09/28 03:26:29;;;;;;;9.78;7.97;;;;;;;8.43;79.16;101481.94;1775273;80;21201;-72
2021/09/28 03:28:57;;;;;;;11.80;8.15;;;;;;;8.40;79.14;101491.17;1775136;80;20901;-72
2021/09/28 03:31:24;;;;;;;8.60;7.42;;;;;;;8.36;79.09;101490.01;1775396;80;20988;-74
2021/09/28 03:33:52;;;;;;;7.58;6.80;;;;;;;8.33;79.05;101496.66;1775206;80;20948;-72
2021/09/28 03:36:20;;;;;;;8.60;6.45;;;;;;;8.29;79.02;101494.61;1775246;80;20967;-74
2021/09/28 03:38:47;;;;;;;6.37;5.60;;;;;;;8.28;79.01;101502.06;1775293;80;22016;-73
2021/09/28 03:41:14;;;;;;;7.22;6.25;;;;;;;8.24;78.83;101496.55;1775539;80;20963;-73
2021/09/28 03:43:41;;;;;;;6.33;5.53;;;;;;;8.24;78.72;101505.69;1775139;80;21034;-72
2021/09/28 03:46:08;;;;;;;11.08;5.87;;;;;;;8.24;78.66;101513.06;1775441;80;21407;-73
2021/09/28 03:48:35;;;;;;;6.37;5.17;;;;;;;8.23;78.87;101512.68;1775312;80;20877;-72
2021/09/28 03:51:03;;;;;;;6.65;5.87;;;;;;;8.23;79.08;101511.37;1775281;80;21155;-72
2021/09/28 03:53:30;;;;;;;8.75;5.85;;;;;;;8.27;79.24;101512.09;1775090;80;20889;-72
2021/09/28 03:55:58;;;;;;;8.08;6.10;;;;;;;8.29;79.38;101519.00;1775135;80;20856;-72
2021/09/28 03:58:26;;;;;;;6.20;5.60;;;;;;;8.34;79.46;101520.57;1775149;80;20905;-72
2021/09/28 04:00:53;;;;;;;13.88;6.20;;;;;;;8.40;79.68;101520.35;1775554;80;21486;-71
2021/09/28 04:03:21;;;;;;;8.18;5.47;;;;;;;8.44;79.67;101523.30;1775091;80;21162;-72
2021/09/28 04:05:48;;;;;;;9.85;6.70;;;;;;;8.50;79.89;101521.77;1775440;80;20944;-70
2021/09/28 04:08:14;;;;;;;9.78;7.55;;;;;;;8.57;79.84;101519.31;1775267;80;21370;-72
2021/09/28 04:10:41;;;;;;;11.40;6.87;;;;;;;8.65;79.85;101524.28;1775407;80;20956;-70
2021/09/28 04:13:11;;;;;;;11.25;7.58;;;;;;;8.71;79.83;101523.59;1775335;80;20916;-69
2021/09/28 04:15:41;;;;;;;12.73;7.97;;;;;;;8.77;79.70;101530.34;1775845;80;21990;-69
2021/09/28 04:18:10;;;;;;;11.28;8.00;;;;;;;8.81;79.65;101525.86;1754523;80;20924;-70
2021/09/28 04:20:40;;;;;;;19.48;10.72;;;;;;;8.82;79.55;101523.16;1777685;80;20893;-71
2021/09/28 04:23:09;;;;;;;12.30;8.73;;;;;;;8.84;79.44;101521.80;1776330;80;20928;-70
2021/09/28 04:25:35;;;;;;;11.48;9.60;;;;;;;8.85;79.44;101512.60;1776154;80;21311;-71
2021/09/28 04:28:03;;;;;;;15.80;13.05;;;;;;;8.88;79.48;101522.09;1775290;80;21147;-72
2021/09/28 04:30:29;;;;;;;14.50;10.15;;;;;;;8.91;79.56;101524.14;1775358;80;21125;-70
2021/09/28 04:32:56;;;;;;;11.08;9.15;;;;;;;8.95;79.50;101523.55;1775159;80;21387;-70
2021/09/28 04:35:24;;;;;;;11.60;9.35;;;;;;;9.01;79.52;101525.09;1775151;80;20987;-71
2021/09/28 04:37:51;;;;;;;10.18;9.08;;;;;;;9.08;79.44;101520.01;1775155;80;20963;-73
2021/09/28 04:40:18;;;;;;;14.23;9.35;;;;;;;9.15;79.39;101519.31;1775114;80;21138;-74
2021/09/28 04:42:44;;;;;;;9.25;8.08;;;;;;;9.25;79.30;101523.25;1775052;80;20963;-76
2021/09/28 04:45:11;;;;;;;10.85;8.13;;;;;;;9.37;79.16;101530.62;1775145;80;20868;-73
2021/09/28 04:47:39;;;;;;;10.23;7.45;;;;;;;9.57;79.18;101531.13;1775150;80;20932;-73
2021/09/28 04:50:06;;;;;;;8.65;7.53;;;;;;;9.76;78.76;101536.47;1775007;80;20904;-71
2021/09/28 04:52:36;;;;;;;10.88;8.73;;;;;;;9.91;78.29;101533.16;1775129;80;21554;-71
2021/09/28 04:55:05;;;;;;;11.33;8.90;;;;;;;9.99;77.75;101531.55;1775112;80;20897;-72
2021/09/28 04:57:33;;;;;;;10.78;8.63;;;;;;;10.01;77.35;101540.66;1775116;80;21109;-74
2021/09/28 05:00:00;;;;;;;16.35;8.80;;;;;;;9.98;76.96;101539.00;1775037;80;20955;-72
2021/09/28 05:02:27;;;;;;;15.80;9.55;;;;;;;9.96;76.84;101540.86;1775152;80;20945;-73
2021/09/28 05:04:54;;;;;;;11.25;7.62;;;;;;;9.93;76.83;101540.97;1775493;80;21277;-72
2021/09/28 05:07:21;;;;;;;11.57;8.25;;;;;;;9.92;76.91;101539.28;1775143;80;20963;-75
2021/09/28 05:09:49;;;;;;;9.10;8.18;;;;;;;9.93;76.91;101546.21;1775317;80;20853;-76
2021/09/28 05:12:16;;;;;;;10.28;7.92;;;;;;;9.94;76.92;101542.23;1775010;80;20940;-75
2021/09/28 05:14:43;;;;;;;9.28;7.62;;;;;;;9.99;77.01;101543.80;1775153;80;20930;-76
2021/09/28 05:17:12;;;;;;;14.07;8.83;;;;;;;10.04;77.19;101545.76;1774621;80;21026;-76
2021/09/28 05:19:39;;;;;;;12.98;8.65;;;;;;;10.12;77.18;101547.60;1774149;80;21497;-75
2021/09/28 05:22:06;;;;;;;14.10;8.35;;;;;;;10.21;77.26;101556.38;1774834;80;20936;-76
2021/09/28 05:24:32;;;;;;;11.95;8.85;;;;;;;10.31;77.20;101559.00;1775348;80;20955;-78
2021/09/28 05:26:59;;;;;;;13.10;8.73;;;;;;;10.40;77.13;101562.99;1775492;80;21379;-74
2021/09/28 05:29:26;;;;;;;11.33;8.85;;;;;;;10.51;77.01;101565.14;1775233;80;21509;-74
2021/09/28 05:31:53;;;;;;;11.03;8.75;;;;;;;10.63;76.79;101568.98;1775231;80;20924;-78
2021/09/28 05:34:21;;;;;;;10.78;8.30;;;;;;;10.76;76.43;101568.81;1775143;80;20963;-78
2021/09/28 05:36:49;;;;;;;9.75;8.03;;;;;;;10.87;76.05;101569.20;1775144;80;20905;-76
2021/09/28 05:39:17;;;;;;;15.88;9.08;;;;;;;10.93;75.52;101562.80;1775109;80;20885;-77
2021/09/28 05:41:43;;;;;;;14.68;9.38;;;;;;;10.96;75.39;101563.53;1775117;80;21184;-77
2021/09/28 05:46:50;;;;;;;13.68;8.30;;;;;;;11.28;75.30;101569.50;1816329;78;23235;-77
2021/09/28 05:49:17;;;;;;;17.60;9.10;;;;;;;11.44;74.96;101573.08;1789441;79;20920;-76
2021/09/28 05:51:52;;;;;;;12.50;7.37;;;;;;;11.80;74.70;101568.25;1789456;80;21159;-76
2021/09/28 05:54:20;;;;;;;18.15;8.68;;;;;;;12.22;73.48;101574.45;1789389;80;20963;-77
2021/09/28 05:56:48;;;;;;;11.78;7.70;;;;;;;12.72;72.50;101576.69;1789458;80;21460;-76
2021/09/28 05:59:17;;;;;;;9.05;8.13;;;;;;;13.27;71.22;101575.42;1789515;80;20951;-76
2021/09/28 06:01:44;;;;;;;10.48;7.90;;;;;;;13.80;69.68;101582.56;1789412;80;20919;-77
2021/09/28 06:04:11;;;;;;;8.95;7.20;;;;;;;14.09;67.86;101584.81;1789415;80;21523;-75
2021/09/28 06:06:41;;;;;;;11.50;8.48;;;;;;;14.20;66.83;101582.37;1789496;80;20907;-75
2021/09/28 06:09:09;;;;;;;9.45;7.83;;;;;;;14.34;65.62;101581.58;1789463;79;20943;-77
2021/09/28 06:11:36;;;;;;;11.88;7.17;;;;;;;14.65;65.13;101586.30;1789513;80;21467;-77
2021/09/28 06:14:03;;;;;;;12.33;7.60;;;;;;;14.96;63.40;101584.41;1789821;80;20876;-76
2021/09/28 06:16:30;;;;;;;11.40;8.20;;;;;;;15.38;62.36;101583.45;1789403;80;21156;-76
2021/09/28 06:18:59;;;;;;;12.47;6.83;;;;;;;15.75;60.96;101587.69;1789317;79;20900;-77
2021/09/28 06:21:28;;;;;;;16.37;9.35;;;;;;;16.15;59.87;101585.85;1789275;79;20923;-77
2021/09/28 06:23:54;;;;;;;14.00;7.97;;;;;;;16.53;58.67;101585.50;1789619;79;20904;-75
2021/09/28 06:26:21;;;;;;;12.13;8.13;;;;;;;16.70;57.66;101591.79;1789479;80;21342;-76
2021/09/28 06:28:48;;;;;;;10.65;8.90;;;;;;;16.68;56.75;101600.31;1789604;80;21089;-76
2021/09/28 06:31:15;;;;;;;9.08;7.72;;;;;;;16.55;56.79;101602.97;1789238;80;20899;-77
2021/09/28 06:33:44;;;;;;;12.85;8.18;;;;;;;16.40;56.70;101601.38;1789473;79;20888;-76
2021/09/28 06:36:11;;;;;;;8.60;7.47;;;;;;;16.10;56.68;101599.88;1789328;79;21321;-76
2021/09/28 06:38:38;;;;;;;10.90;7.50;;;;;;;15.71;57.43;101602.91;1789691;80;20896;-75
2021/09/28 06:41:05;;;;;;;10.00;7.85;;;;;;;15.72;57.94;101597.16;1789391;80;21118;-75
2021/09/28 06:43:33;;;;;;;11.33;8.10;;;;;;;16.06;57.97;101601.52;1789342;80;20919;-76
2021/09/28 06:46:01;;;;;;;12.70;7.90;;;;;;;16.70;57.47;101597.09;1786335;80;20907;-76
2021/09/28 06:48:28;;;;;;;12.40;8.33;;;;;;;17.45;55.64;101603.27;1784477;80;20900;-74
2021/09/28 06:50:56;;;;;;;11.12;7.75;;;;;;;18.05;53.49;101601.49;1784090;79;21496;-74
2021/09/28 06:53:23;;;;;;;14.75;9.30;;;;;;;18.55;51.94;101610.88;1784082;80;22009;-74
2021/09/28 06:55:50;;;;;;;11.18;8.20;;;;;;;19.01;50.33;101609.95;1784028;80;20903;-76
2021/09/28 06:58:17;;;;;;;14.60;7.95;;;;;;;19.27;49.11;101609.65;1783511;80;20836;-75
2021/09/28 07:00:44;;;;;;;11.40;7.72;;;;;;;19.57;48.51;101604.14;1783522;80;20876;-77
2021/09/28 07:03:12;;;;;;;11.30;8.18;;;;;;;19.93;47.49;101607.41;1783660;80;20927;-77
2021/09/28 07:05:39;;;;;;;9.50;6.90;;;;;;;20.08;46.63;101605.63;1783461;79;22033;-76
2021/09/28 07:08:06;;;;;;;12.25;7.85;;;;;;;20.21;46.52;101605.43;1783726;79;20946;-76
2021/09/28 07:10:33;;;;;;;13.58;7.62;;;;;;;20.37;45.52;101606.78;1783595;80;20907;-77
2021/09/28 07:13:02;;;;;;;9.48;7.60;;;;;;;20.51;45.05;101610.42;1783567;79;20923;-76
2021/09/28 07:15:29;;;;;;;8.73;6.10;;;;;;;20.80;45.47;101615.91;1783602;80;20970;-77
2021/09/28 07:17:57;;;;;;;9.98;7.00;;;;;;;21.31;45.02;101604.26;1783498;79;21565;-77
2021/09/28 07:20:24;;;;;;;15.05;6.72;;;;;;;21.81;43.90;101612.70;1783499;80;20841;-75
2021/09/28 07:22:50;;;;;;;10.10;7.47;;;;;;;22.20;43.11;101613.14;1783910;79;20887;-76
2021/09/28 07:25:17;;;;;;;17.40;7.30;;;;;;;22.56;42.06;101608.84;1783501;80;20951;-77
2021/09/28 07:27:45;;;;;;;16.27;7.55;;;;;;;22.90;41.38;101609.13;1783952;80;21014;-77
2021/09/28 07:30:13;;;;;;;14.05;7.47;;;;;;;23.24;40.79;101605.03;1783473;80;22057;-77
2021/09/28 07:32:42;;;;;;;12.45;7.28;;;;;;;23.44;39.55;101608.41;1783411;80;20844;-77
2021/09/28 07:35:09;;;;;;;14.47;7.28;;;;;;;23.52;38.72;101605.80;1783533;80;20921;-76
2021/09/28 07:37:36;;;;;;;19.15;7.80;;;;;;;23.68;39.49;101611.80;1783420;80;21436;-76
2021/09/28 07:40:06;;;;;;;7.83;6.42;;;;;;;23.96;39.24;101609.39;1783705;80;20871;-76
2021/09/28 07:42:35;;;;;;;19.00;9.78;;;;;;;24.33;38.73;101612.34;1783478;79;21956;-76
2021/09/28 07:45:03;;;;;;;15.30;6.62;;;;;;;24.51;37.47;101603.43;1784123;80;20931;-75
2021/09/28 07:47:31;;;;;;;13.93;6.85;;;;;;;24.63;37.02;101610.69;1785100;80;20907;-76
2021/09/28 07:49:58;;;;;;;14.05;6.87;;;;;;;24.57;36.54;101606.82;1785679;80;21409;-75
2021/09/28 07:52:25;;;;;;;9.65;6.05;;;;;;;24.54;37.31;101608.46;1786430;80;20876;-76
2021/09/28 07:54:53;;;;;;;11.85;6.53;;;;;;;24.63;37.24;101604.81;1786125;80;21695;-77
2021/09/28 07:57:19;;;;;;;18.98;7.10;;;;;;;24.66;36.91;101608.54;1783677;80;20849;-76
2021/09/28 07:59:46;;;;;;;12.55;6.40;;;;;;;24.82;36.42;101605.92;1783582;80;20974;-76
2021/09/28 08:02:13;;;;;;;12.82;6.78;;;;;;;25.00;36.21;101605.81;1783475;79;21466;-77
2021/09/28 08:04:42;;;;;;;13.10;6.33;;;;;;;25.17;36.33;101608.05;1783427;80;20836;-77
2021/09/28 08:07:12;;;;;;;14.00;5.50;;;;;;;25.38;35.90;101608.12;1783498;80;21948;-77
2021/09/28 08:09:38;;;;;;;17.25;5.47;;;;;;;25.53;35.99;101598.41;1783303;80;20879;-77
2021/09/28 08:12:07;;;;;;;15.03;5.42;;;;;;;25.74;35.14;101593.88;1783532;80;20919;-78
2021/09/28 08:14:34;;;;;;;12.58;5.90;;;;;;;26.01;34.38;101601.28;1783721;80;21042;-78
2021/09/28 08:17:01;;;;;;;17.70;5.33;;;;;;;26.35;34.26;101601.59;1783455;79;20883;-78
2021/09/28 08:19:29;;;;;;;18.12;6.58;;;;;;;26.59;34.01;101598.86;1783594;80;21204;-78
2021/09/28 08:21:56;;;;;;;17.73;6.22;;;;;;;26.68;33.53;101607.73;1783656;79;21004;-77
2021/09/28 08:24:25;;;;;;;19.90;6.15;;;;;;;26.41;33.33;101604.91;1783456;80;20880;-76
2021/09/28 08:29:37;;;;;;;17.02;5.75;;;;;;;26.53;32.89;101600.02;1783736;80;20951;-75
2021/09/28 08:32:05;;;;;;;20.85;6.28;;;;;;;26.24;32.72;101591.52;1783553;80;21528;-76
2021/09/28 08:34:33;;;;;;;15.83;5.75;;;;;;;26.00;32.65;101592.90;1783512;80;20961;-76
2021/09/28 08:37:02;;;;;;;18.37;5.30;;;;;;;25.85;33.18;101585.47;1783777;80;21062;-76
2021/09/28 08:39:29;;;;;;;20.12;5.67;;;;;;;25.83;33.10;101582.14;1783470;79;20927;-76
2021/09/28 08:41:58;;;;;;;22.42;5.62;;;;;;;25.77;33.18;101580.13;1783488;80;20868;-77
2021/09/28 08:44:26;;;;;;;23.42;4.95;;;;;;;25.74;33.41;101579.09;1783764;80;21279;-74
2021/09/28 08:46:53;;;;;;;21.87;5.33;;;;;;;26.02;33.11;101584.16;1778509;79;20908;-76
2021/09/28 08:49:20;;;;;;;16.90;4.50;;;;;;;26.42;33.37;101582.40;1775207;80;20864;-77
2021/09/28 08:51:47;;;;;;;20.43;4.62;;;;;;;26.84;32.53;101584.78;1775076;79;21444;-74
2021/09/28 08:54:15;;;;;;;24.65;4.83;;;;;;;26.97;31.09;101578.84;1775444;80;20888;-74
2021/09/28 08:56:43;;;;;;;16.85;4.83;;;;;;;27.17;30.89;101578.36;1775145;79;21771;-76
2021/09/28 08:59:18;;;;;;;29.77;4.95;;;;;;;27.05;30.40;101576.59;1775157;80;21440;-74
2021/09/28 09:01:57;;;;;;;;;;;;;;;26.69;30.68;101583.84;1777635;79;20915;-74
2021/09/28 09:04:25;;;;;;;16.30;5.28;;;;;;;26.50;31.00;101577.48;1774879;80;20111;-74
2021/09/28 09:06:54;;;;;;;22.42;4.67;;;;;;;26.45;31.23;101578.00;1775294;80;21405;-73
2021/09/28 09:09:22;;;;;;;14.23;4.70;;;;;;;26.71;31.66;101577.78;1775461;80;22146;-75
2021/09/28 09:11:51;;;;;;;24.12;5.65;;;;;;;27.15;31.20;101572.34;1775138;80;20948;-73
2021/09/28 09:14:24;;;;;;;15.95;4.33;;;;;;;27.36;30.31;101582.49;1775127;79;20912;-74
2021/09/28 09:16:54;;;;;;;20.77;3.97;;;;;;;26.87;30.07;101586.28;1775340;80;20884;-73
2021/09/28 09:19:28;;;;;;;23.57;4.33;;;;;;;26.19;30.70;101580.44;1775125;79;20887;-73
2021/09/28 09:22:01;;;;;;;23.62;4.30;;;;;;;25.76;31.42;101580.28;1775304;79;21764;-74
2021/09/28 09:24:49;;;;;;;20.55;6.00;;;;;;;25.38;32.37;101584.79;1775279;80;20959;-72
2021/09/28 09:27:19;;;;;;;22.48;4.50;;;;;;;24.89;32.45;101584.64;1775143;80;21386;-73
2021/09/28 09:30:07;;;;;;;15.25;4.45;;;;;;;23.99;33.97;101594.36;1775415;79;20979;-74
2021/09/28 09:32:53;;;;;;;20.12;4.05;;;;;;;23.30;34.92;101597.71;1775100;80;20951;-73
2021/09/28 09:35:32;;;;;;;18.25;4.70;;;;;;;22.83;35.88;101601.33;1775418;80;21354;-73
2021/09/28 09:38:11;;;;;;;18.40;4.70;;;;;;;22.57;36.46;101601.18;1775059;80;20892;-73
2021/09/28 09:40:43;;;;;;;16.65;4.10;;;;;;;22.28;37.32;101604.78;1775347;80;21057;-73
2021/09/28 09:43:11;;;;;;;24.85;5.40;;;;;;;21.98;37.77;101604.95;1774401;80;20884;-74
2021/09/28 09:45:38;;;;;;;16.20;4.75;;;;;;;21.65;38.24;101612.40;1775460;80;21136;-73
2021/09/28 09:48:26;;;;;;;20.40;4.65;;;;;;;21.03;38.88;101615.23;1775204;80;21845;-73
2021/09/28 09:51:08;;;;;;;21.00;4.15;;;;;;;20.40;39.65;101614.00;1774172;80;20904;-73
2021/09/28 09:53:39;;;;;;;16.40;3.95;;;;;;;19.98;40.99;101617.17;1775039;80;20868;-73
2021/09/28 09:56:07;;;;;;;23.38;4.50;;;;;;;19.80;41.65;101622.22;1773961;80;20943;-72
2021/09/28 09:58:34;;;;;;;21.52;3.85;;;;;;;19.66;42.04;101628.16;1775232;80;20920;-73
2021/09/28 10:01:00;;;;;;;16.12;3.83;;;;;;;19.48;42.56;101619.04;1775052;80;22121;-70
2021/09/28 10:03:28;;;;;;;18.95;3.98;;;;;;;19.30;43.30;101623.17;1774973;80;20869;-71
2021/09/28 10:05:55;;;;;;;17.40;3.98;;;;;;;19.16;43.44;101625.63;1775442;79;21347;-75
2021/09/28 10:08:24;;;;;;;15.80;4.37;;;;;;;18.98;43.81;101623.95;1775026;80;20864;-75
2021/09/28 10:10:56;;;;;;;19.52;5.17;;;;;;;18.66;44.30;101627.81;1775090;79;21350;-75
2021/09/28 10:13:47;;;;;;;18.00;4.25;;;;;;;18.41;45.38;101627.06;1775221;80;21236;-75
2021/09/28 10:16:37;;;;;;;21.45;5.28;;;;;;;18.18;45.60;101627.47;1775057;80;20911;-75
2021/09/28 10:19:24;;;;;;;24.63;4.83;;;;;;;18.13;46.39;101625.17;1775513;79;20923;-76
2021/09/28 10:21:52;;;;;;;24.30;5.10;;;;;;;18.12;46.16;101634.56;1775123;80;21386;-76
2021/09/28 10:24:27;;;;;;;18.00;4.75;;;;;;;18.06;46.41;101631.08;1775046;80;20833;-76
2021/09/28 10:27:02;;;;;;;17.85;4.10;;;;;;;18.07;46.63;101631.42;1775352;79;21082;-75
2021/09/28 10:29:40;;;;;;;16.00;4.62;;;;;;;18.16;47.09;101634.70;1775311;80;20872;-73
2021/09/28 10:32:34;;;;;;;19.27;4.30;;;;;;;18.20;46.66;101631.70;1774993;80;20924;-74
2021/09/28 10:35:09;;;;;;;17.42;3.87;;;;;;;18.25;46.92;101632.67;1774626;79;20891;-73
2021/09/28 10:38:05;;;;;;;16.97;4.25;;;;;;;18.40;46.79;101631.98;1775471;79;20931;-76
2021/09/28 10:40:38;;;;;;;13.48;4.08;;;;;;;18.66;45.71;101633.96;1775230;79;22151;-75
2021/09/28 10:43:09;;;;;;;16.85;4.42;;;;;;;18.85;45.60;101636.03;1775130;80;20907;-72
2021/09/28 10:45:41;;;;;;;14.20;4.05;;;;;;;19.09;44.88;101634.58;1775448;79;20880;-72
2021/09/28 10:48:25;;;;;;;13.43;3.92;;;;;;;19.52;44.92;101629.80;1781916;80;20919;-74
2021/09/28 10:51:15;;;;;;;15.98;3.98;;;;;;;20.09;44.30;101631.27;1774217;80;20924;-70
2021/09/28 10:53:47;;;;;;;19.62;5.40;;;;;;;20.63;43.13;101620.53;1783629;80;21152;-70
2021/09/28 10:56:15;;;;;;;15.80;4.35;;;;;;;20.91;41.78;101619.81;1783648;79;20844;-77
2021/09/28 10:59:02;;;;;;;22.10;5.12;;;;;;;20.99;41.36;101619.65;1783489;80;20911;-73
2021/09/28 11:01:31;;;;;;;14.18;4.30;;;;;;;21.00;41.84;101623.49;1783684;80;21430;-73
2021/09/28 11:04:03;;;;;;;15.58;4.55;;;;;;;21.24;41.15;101626.30;1783537;79;21465;-73
2021/09/28 11:06:49;;;;;;;21.20;4.95;;;;;;;21.63;40.64;101615.70;1783799;80;21116;-73
2021/09/28 11:09:18;;;;;;;19.15;4.05;;;;;;;22.01;39.77;101617.53;1783539;79;20899;-72
2021/09/28 11:11:53;;;;;;;23.02;5.12;;;;;;;22.39;39.58;101621.15;1783508;80;21005;-73
2021/09/28 11:14:23;;;;;;;24.82;4.72;;;;;;;22.69;38.97;101620.55;1783467;80;21329;-73
2021/09/28 11:17:00;;;;;;;20.43;5.20;;;;;;;22.85;38.25;101618.08;1783891;80;20904;-74
2021/09/28 11:19:35;;;;;;;14.68;4.42;;;;;;;22.87;36.89;101617.94;1783931;80;21642;-73
2021/09/28 11:22:06;;;;;;;19.05;4.53;;;;;;;22.70;37.45;101619.08;1785744;79;20856;-71
2021/09/28 11:24:33;;;;;;;16.67;4.37;;;;;;;22.72;37.54;101613.09;1785290;80;20927;-71
2021/09/28 11:27:10;;;;;;;14.33;4.87;;;;;;;22.63;37.67;101621.96;1785501;80;20848;-71
2021/09/28 11:29:37;;;;;;;20.55;4.50;;;;;;;22.54;37.67;101621.51;1784168;80;20943;-72
2021/09/28 11:32:07;;;;;;;19.67;4.58;;;;;;;22.43;38.00;101620.34;1783931;80;21794;-73
2021/09/28 11:34:37;;;;;;;23.20;5.85;;;;;;;22.22;38.56;101620.55;1783425;79;20825;-72
2021/09/28 11:37:04;;;;;;;16.75;4.92;;;;;;;22.08;38.14;101625.82;1783596;80;20926;-73